Time;durP1;ratioP1;P1;durP2;ratioP2;P2;SDS_P1;SDS_P2;PMS_P1;PMS_P2;Temp;Humidity;BMP_temperature;BMP_pressure;BME280_temperature;BME280_humidity;BME280_pressure;Samples;Min_cycle;Max_cycle;Signal;HPM_P1;HPM_P2
2022/07/28 00:01:46;;;;;;;2.70;1.17;;;;;;;24.51;34.35;101619.13;5033804;28;20117;-67
2022/07/28 00:04:11;;;;;;;0.93;0.63;;;;;;;24.48;34.41;101620.38;5034897;28;20025;-67
2022/07/28 00:06:36;;;;;;;1.80;0.98;;;;;;;24.43;34.42;101611.88;5034076;28;20030;-67
2022/07/28 00:09:02;;;;;;;3.03;0.93;;;;;;;24.43;34.16;101617.34;5034766;28;20459;-67
2022/07/28 00:11:28;;;;;;;1.05;0.60;;;;;;;24.42;34.49;101614.81;5034327;28;20079;-67
2022/07/28 00:13:53;;;;;;;1.77;0.68;;;;;;;24.38;34.13;101616.25;5034252;28;20041;-67
2022/07/28 00:16:19;;;;;;;2.50;0.90;;;;;;;24.34;34.16;101608.44;5035552;28;20514;-67
2022/07/28 00:18:44;;;;;;;0.50;0.50;;;;;;;24.31;33.89;101610.75;5001294;28;20075;-67
2022/07/28 00:21:10;;;;;;;2.00;1.05;;;;;;;24.28;34.31;101619.38;5034225;28;20029;-67
2022/07/28 00:23:35;;;;;;;1.63;0.50;;;;;;;24.26;34.20;101616.00;5034391;28;20045;-67
2022/07/28 00:26:01;;;;;;;4.22;0.90;;;;;;;24.24;34.12;101618.91;5017605;28;20078;-67
2022/07/28 00:28:26;;;;;;;4.13;1.30;;;;;;;24.24;34.41;101620.78;5035264;28;20486;-67
2022/07/28 00:30:54;;;;;;;1.65;0.65;;;;;;;24.25;34.39;101617.03;5017620;28;20025;-67
2022/07/28 00:33:19;;;;;;;2.85;0.73;;;;;;;24.24;34.21;101618.91;5034079;28;20147;-67
2022/07/28 00:35:44;;;;;;;3.45;0.63;;;;;;;24.23;34.36;101610.91;5017445;28;20119;-67
2022/07/28 00:38:10;;;;;;;5.43;0.95;;;;;;;24.24;34.46;101613.44;5033594;28;20521;-67
2022/07/28 00:43:19;;;;;;;2.20;0.90;;;;;;;24.23;34.29;101617.22;5020287;28;20033;-67
2022/07/28 00:45:44;;;;;;;2.83;0.77;;;;;;;24.22;34.66;101607.31;5033875;28;20029;-67
2022/07/28 00:48:10;;;;;;;1.95;0.70;;;;;;;24.22;34.77;101607.31;5033916;28;20151;-67
2022/07/28 00:50:38;;;;;;;1.38;0.50;;;;;;;24.22;34.00;101598.25;5033624;28;20036;-67
2022/07/28 00:53:05;;;;;;;2.00;0.70;;;;;;;24.23;33.83;101599.97;5033577;28;20032;-67
2022/07/28 00:55:30;;;;;;;2.80;0.88;;;;;;;24.21;34.35;101607.50;5033826;28;20453;-67
2022/07/28 00:57:56;;;;;;;4.43;1.20;;;;;;;24.19;34.23;101606.88;5033539;28;20113;-67
2022/07/28 01:00:21;;;;;;;6.05;0.90;;;;;;;24.21;34.78;101607.50;5033486;28;20056;-67
2022/07/28 01:02:47;;;;;;;0.57;0.55;;;;;;;24.21;34.66;101607.50;5033611;28;20052;-67
2022/07/28 01:05:13;;;;;;;2.92;0.80;;;;;;;24.19;34.57;101604.13;5033479;28;20490;-67
2022/07/28 01:07:56;;;;;;;1.33;0.57;;;;;;;24.20;34.43;101597.63;5017031;28;20033;-67
2022/07/28 01:10:58;;;;;;;3.53;0.65;;;;;;;24.13;34.46;101594.81;5032954;28;20394;-67
2022/07/28 01:13:49;;;;;;;1.85;0.50;;;;;;;24.15;34.43;101602.81;5006400;28;20034;-67
2022/07/28 01:16:15;;;;;;;2.47;0.50;;;;;;;24.14;34.46;101601.16;5033439;28;20510;-67
2022/07/28 01:19:01;;;;;;;3.45;0.82;;;;;;;24.12;34.08;101598.59;5033389;28;20026;-67
2022/07/28 01:21:33;;;;;;;1.77;0.70;;;;;;;24.09;34.46;101589.91;5034288;28;20064;-67
2022/07/28 01:24:01;;;;;;;2.67;0.88;;;;;;;24.08;34.82;101593.69;5033204;28;20061;-67
2022/07/28 01:26:55;;;;;;;1.98;0.60;;;;;;;24.06;35.25;101599.38;5032997;28;20021;-67
2022/07/28 01:29:48;;;;;;;1.98;0.60;;;;;;;24.05;34.81;101594.09;5030675;28;20029;-67
2022/07/28 01:32:35;;;;;;;;;;;;;;;24.03;34.94;101593.44;5016995;28;20076;-67
2022/07/28 01:35:11;;;;;;;2.85;0.82;;;;;;;24.00;34.00;101588.34;5032820;28;20397;-67
2022/07/28 01:37:42;;;;;;;1.73;0.80;;;;;;;23.97;34.20;101588.75;5000273;28;20492;-66
2022/07/28 01:40:09;;;;;;;0.60;0.55;;;;;;;23.96;34.49;101584.31;5032690;28;20033;-66
2022/07/28 01:42:39;;;;;;;4.55;0.60;;;;;;;23.96;34.60;101587.06;5032762;28;20041;-67
2022/07/28 01:45:06;;;;;;;5.25;0.55;;;;;;;23.93;34.07;101582.81;5016367;28;20031;-67
2022/07/28 01:47:33;;;;;;;3.85;0.63;;;;;;;23.93;34.73;101579.22;5032789;28;20445;-67
2022/07/28 01:50:03;;;;;;;3.03;1.08;;;;;;;23.89;35.04;101577.94;5031962;28;20475;-67
2022/07/28 01:52:29;;;;;;;3.20;0.82;;;;;;;23.92;34.06;101583.03;5015950;28;20029;-66
2022/07/28 01:54:55;;;;;;;0.70;0.60;;;;;;;23.87;34.35;101577.31;5016042;28;20028;-66
2022/07/28 01:57:22;;;;;;;1.27;0.57;;;;;;;23.87;34.61;101577.31;5016094;28;20112;-67
2022/07/28 01:59:48;;;;;;;2.15;0.70;;;;;;;23.85;34.51;101569.28;5032311;28;20053;-67
2022/07/28 02:02:16;;;;;;;4.53;0.60;;;;;;;23.85;35.23;101569.28;5015973;28;20053;-66
2022/07/28 02:04:42;;;;;;;2.30;0.50;;;;;;;23.78;34.54;101563.75;5032437;28;20032;-66
2022/07/28 02:07:09;;;;;;;3.67;0.80;;;;;;;23.80;34.49;101568.19;5015938;28;20049;-67
2022/07/28 02:09:35;;;;;;;1.35;0.45;;;;;;;23.78;34.39;101569.22;5032406;28;20120;-67
2022/07/28 02:12:02;;;;;;;0.93;0.35;;;;;;;23.76;35.08;101571.31;5032317;28;20021;-67
2022/07/28 02:14:28;;;;;;;1.70;0.40;;;;;;;23.71;34.37;101562.84;5015662;28;20033;-67
2022/07/28 02:16:57;;;;;;;2.35;0.73;;;;;;;23.71;34.32;101568.31;5015933;28;20055;-67
2022/07/28 02:19:23;;;;;;;1.17;0.50;;;;;;;23.68;35.09;101567.88;5032108;28;20022;-67
2022/07/28 02:21:50;;;;;;;3.80;0.60;;;;;;;23.67;34.71;101561.53;5015928;28;20033;-67
2022/07/28 02:24:22;;;;;;;0.82;0.45;;;;;;;23.64;35.49;101556.50;4999300;28;20129;-67
2022/07/28 02:26:52;;;;;;;3.75;0.60;;;;;;;23.64;34.74;101555.63;5015871;28;20021;-67
2022/07/28 02:29:21;;;;;;;3.92;1.15;;;;;;;23.62;34.66;101557.69;5031976;28;20187;-67
2022/07/28 02:31:50;;;;;;;1.17;0.63;;;;;;;23.61;34.63;101551.41;5031985;28;20048;-67
2022/07/28 02:34:18;;;;;;;2.45;0.47;;;;;;;23.61;35.35;101550.56;5031771;28;20102;-66
2022/07/28 02:36:55;;;;;;;0.98;0.55;;;;;;;23.58;34.66;101543.59;5031991;28;20068;-67
2022/07/28 02:39:24;;;;;;;0.70;0.65;;;;;;;23.57;34.59;101541.88;5031937;28;20079;-67
2022/07/28 02:41:57;;;;;;;3.60;0.40;;;;;;;23.54;34.74;101527.75;5032004;28;20036;-67
2022/07/28 02:44:26;;;;;;;1.88;0.47;;;;;;;23.49;35.21;101531.09;5015498;28;20025;-67
2022/07/28 02:46:51;;;;;;;1.58;0.50;;;;;;;23.51;35.22;101536.34;5032325;28;20067;-67
2022/07/28 02:49:20;;;;;;;4.22;0.73;;;;;;;23.48;35.13;101532.13;5031876;28;20104;-67
2022/07/28 02:51:48;;;;;;;0.93;0.40;;;;;;;23.45;35.57;101532.50;5031750;28;20446;-66
2022/07/28 02:54:16;;;;;;;4.47;0.55;;;;;;;23.44;34.77;101529.97;5031813;28;20021;-67
2022/07/28 02:56:42;;;;;;;0.77;0.55;;;;;;;23.37;34.99;101529.88;5031828;28;20034;-67
2022/07/28 02:59:09;;;;;;;2.90;0.60;;;;;;;23.37;34.63;101538.06;5015164;28;20032;-67
2022/07/28 03:01:35;;;;;;;3.60;0.57;;;;;;;23.35;35.03;101540.16;5034960;28;20030;-67
2022/07/28 03:04:01;;;;;;;1.20;0.50;;;;;;;23.28;35.51;101535.69;5035690;28;20028;-67
2022/07/28 03:06:26;;;;;;;0.35;0.30;;;;;;;23.25;34.83;101533.34;5035633;28;20404;-66
2022/07/28 03:08:52;;;;;;;0.30;0.30;;;;;;;23.27;35.43;101536.72;5015564;28;20049;-66
2022/07/28 03:11:17;;;;;;;3.30;0.60;;;;;;;23.27;35.52;101539.44;5015763;28;20029;-66
2022/07/28 03:13:43;;;;;;;2.15;0.50;;;;;;;23.23;34.87;101536.25;5016823;28;20480;-66
2022/07/28 03:16:08;;;;;;;1.58;0.52;;;;;;;23.21;34.86;101546.53;4999149;28;20030;-66
2022/07/28 03:18:34;;;;;;;3.72;0.93;;;;;;;23.19;34.73;101540.44;5015683;28;20124;-67
2022/07/28 03:20:59;;;;;;;0.73;0.38;;;;;;;23.16;35.21;101540.81;4999097;28;20484;-67
2022/07/28 03:23:32;;;;;;;1.13;0.63;;;;;;;23.13;35.79;101541.19;5015524;28;20491;-67
2022/07/28 03:26:03;;;;;;;1.85;0.82;;;;;;;23.07;35.15;101537.34;5031907;28;20029;-66
2022/07/28 03:28:29;;;;;;;3.28;0.60;;;;;;;23.05;35.59;101539.44;5015454;28;20113;-66
2022/07/28 03:31:02;;;;;;;6.68;0.90;;;;;;;23.00;35.82;101536.41;5000213;28;20053;-66
2022/07/28 03:33:27;;;;;;;3.75;0.40;;;;;;;23.00;34.88;101547.34;5018373;28;20029;-66
2022/07/28 03:35:55;;;;;;;2.22;1.15;;;;;;;22.97;35.95;101552.38;5002447;28;20479;-66
2022/07/28 03:38:33;;;;;;;6.47;0.50;;;;;;;22.94;36.04;101550.03;5034930;28;20541;-66
2022/07/28 03:40:59;;;;;;;2.75;0.60;;;;;;;22.92;35.97;101555.66;5034923;28;20025;-66
2022/07/28 03:43:25;;;;;;;1.30;0.63;;;;;;;22.90;35.69;101549.56;5036085;28;20060;-66
2022/07/28 03:45:50;;;;;;;0.93;0.60;;;;;;;22.88;35.21;101550.78;5034728;28;20022;-67
2022/07/28 03:48:16;;;;;;;0.68;0.47;;;;;;;22.87;35.66;101551.81;5018218;28;20513;-67
2022/07/28 03:50:41;;;;;;;1.52;0.80;;;;;;;22.83;35.58;101556.84;5018191;28;20020;-67
2022/07/28 03:53:19;;;;;;;1.65;1.08;;;;;;;22.81;35.76;101558.06;5034810;28;20553;-67
2022/07/28 03:55:49;;;;;;;0.70;0.68;;;;;;;22.77;35.48;101554.00;5018188;28;20022;-67
2022/07/28 03:58:15;;;;;;;2.60;0.65;;;;;;;22.76;35.44;101547.69;5034715;28;20039;-66
2022/07/28 04:00:41;;;;;;;1.75;0.77;;;;;;;22.72;35.47;101557.31;5018020;28;20123;-66
2022/07/28 04:03:06;;;;;;;2.22;0.73;;;;;;;22.71;36.15;101552.03;5034713;28;20060;-67
2022/07/28 04:05:31;;;;;;;5.25;0.52;;;;;;;22.71;36.08;101546.56;5035658;28;20037;-67
2022/07/28 04:07:57;;;;;;;3.22;0.70;;;;;;;22.69;35.50;101548.66;5017806;28;20445;-67
2022/07/28 04:10:22;;;;;;;2.55;0.43;;;;;;;22.68;35.66;101552.41;5034347;28;20026;-67
2022/07/28 04:12:54;;;;;;;4.13;0.90;;;;;;;22.65;36.45;101540.00;5017088;28;20181;-67
2022/07/28 04:15:20;;;;;;;2.42;0.60;;;;;;;22.66;36.07;101540.84;5034350;28;20025;-66
2022/07/28 04:17:49;;;;;;;1.88;0.68;;;;;;;22.67;36.44;101545.28;5017761;28;20040;-66
2022/07/28 04:20:16;;;;;;;1.83;0.77;;;;;;;22.67;36.21;101535.16;5034217;28;20497;-66
2022/07/28 04:22:42;;;;;;;0.63;0.45;;;;;;;22.67;35.52;101539.81;5017624;28;20033;-66
2022/07/28 04:25:08;;;;;;;1.17;0.50;;;;;;;22.67;36.30;101539.81;5034063;28;20044;-66
2022/07/28 04:27:35;;;;;;;1.52;0.63;;;;;;;22.66;35.69;101533.50;5034180;28;20025;-66
2022/07/28 04:30:02;;;;;;;1.95;0.47;;;;;;;22.69;35.95;101537.72;5017517;28;20509;-66
2022/07/28 04:32:28;;;;;;;2.67;0.85;;;;;;;22.71;36.62;101543.84;5034017;28;20040;-66
2022/07/28 04:34:53;;;;;;;3.45;0.70;;;;;;;22.74;36.63;101535.25;5033825;28;20041;-66
2022/07/28 04:37:18;;;;;;;2.30;0.88;;;;;;;22.76;36.58;101535.91;5034162;28;20041;-66
2022/07/28 04:39:44;;;;;;;6.18;1.42;;;;;;;22.79;36.62;101541.00;5033705;28;20065;-66
2022/07/28 04:42:10;;;;;;;2.55;0.45;;;;;;;22.79;36.05;101527.34;5033786;28;20033;-66
2022/07/28 04:44:39;;;;;;;2.45;0.82;;;;;;;22.83;36.09;101532.25;5035247;28;20052;-67
2022/07/28 04:47:04;;;;;;;3.70;0.75;;;;;;;22.87;36.64;101529.94;5034870;28;20432;-66
2022/07/28 04:49:30;;;;;;;4.32;0.70;;;;;;;22.92;35.83;101528.34;5017186;28;20029;-66
2022/07/28 04:51:55;;;;;;;2.42;0.93;;;;;;;22.97;35.85;101544.19;5017177;28;20079;-66
2022/07/28 04:54:20;;;;;;;5.00;1.00;;;;;;;23.01;35.44;101543.59;5034874;28;20116;-66
2022/07/28 04:56:46;;;;;;;3.78;0.80;;;;;;;23.05;35.68;101535.84;5034827;28;20108;-66
2022/07/28 04:59:11;;;;;;;4.20;0.80;;;;;;;23.14;36.16;101542.91;5033401;28;20026;-67
2022/07/28 05:01:38;;;;;;;9.40;0.90;;;;;;;23.23;35.77;101544.44;5033320;28;20037;-67
2022/07/28 05:04:06;;;;;;;2.13;0.65;;;;;;;23.30;35.78;101537.19;5034550;28;20041;-67
2022/07/28 05:06:34;;;;;;;2.92;0.95;;;;;;;23.40;35.47;101537.72;5033150;28;20025;-66
2022/07/28 05:08:59;;;;;;;2.67;0.95;;;;;;;23.48;36.06;101540.31;5033333;28;20494;-66
2022/07/28 05:11:25;;;;;;;2.00;0.60;;;;;;;23.48;35.64;101534.84;5011816;28;20029;-66
2022/07/28 05:13:50;;;;;;;1.45;0.63;;;;;;;23.53;35.50;101540.59;5002266;28;20021;-66
2022/07/28 05:16:16;;;;;;;2.88;0.77;;;;;;;23.53;35.55;101539.75;5016204;28;20034;-66
2022/07/28 05:18:41;;;;;;;6.53;0.88;;;;;;;23.57;35.47;101544.63;5027375;28;20033;-66
2022/07/28 05:21:07;;;;;;;2.22;0.93;;;;;;;23.64;35.50;101541.97;5026107;28;20091;-67
2022/07/28 05:23:32;;;;;;;2.35;0.98;;;;;;;23.65;35.80;101539.00;5014556;28;20033;-67
2022/07/28 05:25:58;;;;;;;5.45;0.90;;;;;;;23.70;35.69;101538.44;5033049;28;20491;-66
2022/07/28 05:28:23;;;;;;;2.50;0.60;;;;;;;23.73;35.56;101536.13;5033062;28;20026;-66
2022/07/28 05:30:48;;;;;;;2.10;0.90;;;;;;;23.75;35.36;101530.47;5034408;28;20030;-66
2022/07/28 05:33:14;;;;;;;3.72;1.52;;;;;;;23.75;35.41;101536.81;5032760;28;20041;-67
2022/07/28 05:35:40;;;;;;;2.95;0.80;;;;;;;23.77;36.11;101536.59;5016191;28;20046;-66
2022/07/28 05:38:05;;;;;;;4.60;0.65;;;;;;;23.76;35.43;101530.25;5032886;28;20033;-67
2022/07/28 05:40:31;;;;;;;5.72;1.02;;;;;;;23.77;35.54;101542.06;5032935;28;20053;-66
2022/07/28 05:42:56;;;;;;;4.70;1.08;;;;;;;23.76;36.41;101533.00;5031266;28;20044;-66
2022/07/28 05:45:21;;;;;;;3.65;0.73;;;;;;;23.77;35.59;101540.19;5015170;28;20033;-66
2022/07/28 05:47:51;;;;;;;0.88;0.55;;;;;;;23.79;35.66;101537.22;5012859;28;20030;-66
2022/07/28 05:50:17;;;;;;;3.80;1.05;;;;;;;23.82;36.15;101541.44;5012752;28;20021;-66
2022/07/28 05:52:44;;;;;;;2.72;1.00;;;;;;;23.90;35.46;101546.81;5012746;28;20468;-67
2022/07/28 05:55:09;;;;;;;3.50;1.35;;;;;;;23.89;36.14;101547.84;5013633;28;20033;-66
2022/07/28 05:57:36;;;;;;;2.95;0.95;;;;;;;23.87;36.56;101539.00;5012613;28;20476;-65
2022/07/28 06:00:04;;;;;;;4.50;0.80;;;;;;;23.93;35.74;101540.91;5028949;28;20036;-66
2022/07/28 06:02:29;;;;;;;5.00;1.42;;;;;;;23.99;35.89;101542.84;5028888;28;20076;-66
2022/07/28 06:04:56;;;;;;;2.22;0.82;;;;;;;24.03;35.77;101545.03;5012490;28;20033;-66
2022/07/28 06:07:21;;;;;;;6.28;0.98;;;;;;;24.07;36.40;101539.97;5022342;28;20030;-66
2022/07/28 06:09:46;;;;;;;2.70;0.95;;;;;;;24.12;36.07;101537.53;5012535;28;20028;-66
2022/07/28 06:12:12;;;;;;;1.83;0.60;;;;;;;24.09;35.99;101522.31;5013707;28;20501;-66
2022/07/28 06:14:37;;;;;;;1.90;0.55;;;;;;;24.29;36.18;101541.63;4996010;28;20030;-66
2022/07/28 06:17:02;;;;;;;3.67;0.80;;;;;;;24.26;35.46;101542.06;5013652;28;20029;-66
2022/07/28 06:19:28;;;;;;;2.65;0.98;;;;;;;24.31;35.97;101536.81;5012409;28;20403;-67
2022/07/28 06:21:53;;;;;;;2.78;1.05;;;;;;;24.64;35.46;101535.09;5028716;28;20030;-65
2022/07/28 06:24:18;;;;;;;5.38;1.27;;;;;;;24.69;35.52;101540.78;5012351;28;20026;-65
2022/07/28 06:26:44;;;;;;;2.80;0.90;;;;;;;24.97;35.94;101537.97;5012338;28;20037;-66
2022/07/28 06:29:09;;;;;;;3.53;0.68;;;;;;;25.17;35.13;101538.03;5012225;28;20558;-66
2022/07/28 06:31:35;;;;;;;2.42;1.10;;;;;;;25.44;34.97;101534.28;5005654;28;20108;-65
2022/07/28 06:34:00;;;;;;;6.38;1.30;;;;;;;25.49;35.39;101528.22;5015358;28;20076;-65
2022/07/28 06:36:26;;;;;;;3.58;1.10;;;;;;;25.84;34.62;101536.03;5035176;28;20106;-66
2022/07/28 06:38:51;;;;;;;5.10;1.00;;;;;;;26.10;34.73;101537.91;5019597;28;20065;-67
2022/07/28 06:41:17;;;;;;;5.45;0.93;;;;;;;26.37;34.44;101531.34;5037215;28;20124;-66
2022/07/28 06:43:42;;;;;;;4.00;1.00;;;;;;;26.64;34.13;101543.06;5037204;28;20029;-66
2022/07/28 06:46:08;;;;;;;1.92;0.93;;;;;;;26.89;34.05;101534.97;5037121;28;20037;-66
2022/07/28 06:48:36;;;;;;;0.98;0.88;;;;;;;27.15;33.80;101535.69;5035828;28;20025;-66
2022/07/28 06:51:01;;;;;;;1.60;0.63;;;;;;;27.44;34.09;101536.16;5019744;28;20033;-66
2022/07/28 06:53:27;;;;;;;2.50;0.80;;;;;;;27.68;33.73;101535.34;5035765;28;20036;-66
2022/07/28 06:55:52;;;;;;;2.40;0.70;;;;;;;27.90;33.68;101536.63;5037141;28;20395;-66
2022/07/28 06:58:17;;;;;;;5.40;0.88;;;;;;;28.09;32.96;101529.28;5035780;28;20108;-66
2022/07/28 07:00:43;;;;;;;3.92;1.52;;;;;;;28.28;32.84;101533.75;5035746;28;20051;-66
2022/07/28 07:03:08;;;;;;;6.13;0.90;;;;;;;28.48;33.01;101531.59;5035528;28;20463;-66
2022/07/28 07:05:33;;;;;;;5.03;1.05;;;;;;;28.66;33.05;101528.03;5002751;28;20033;-65
2022/07/28 07:07:59;;;;;;;5.55;1.13;;;;;;;28.84;32.20;101531.59;5035649;28;20033;-66
2022/07/28 07:10:24;;;;;;;3.25;0.75;;;;;;;29.05;32.31;101527.53;5035648;28;20025;-65
2022/07/28 07:12:50;;;;;;;1.90;1.25;;;;;;;29.30;32.44;101541.19;5019135;28;20033;-65
2022/07/28 07:15:15;;;;;;;2.50;1.55;;;;;;;29.51;31.83;101534.31;5019279;28;20064;-65
2022/07/28 07:17:41;;;;;;;3.08;0.88;;;;;;;29.71;32.33;101530.13;5035488;28;20040;-65
2022/07/28 07:20:08;;;;;;;4.68;0.70;;;;;;;29.91;31.93;101529.81;5036459;28;20109;-65
2022/07/28 07:22:33;;;;;;;1.35;0.65;;;;;;;30.09;31.26;101532.47;5018748;28;20040;-66
2022/07/28 07:25:10;;;;;;;3.08;0.90;;;;;;;30.25;31.53;101523.44;5036376;28;20112;-66
2022/07/28 07:27:35;;;;;;;1.95;0.80;;;;;;;30.46;31.05;101535.81;5035108;28;20028;-65
2022/07/28 07:30:05;;;;;;;5.53;0.82;;;;;;;30.44;30.54;101527.78;5035066;28;20030;-65
2022/07/28 07:32:31;;;;;;;2.33;0.82;;;;;;;30.25;31.42;101525.38;5035101;28;20163;-65
2022/07/28 07:34:56;;;;;;;2.72;0.90;;;;;;;30.44;31.02;101529.69;5018301;28;20140;-65
2022/07/28 07:37:23;;;;;;;2.20;1.02;;;;;;;30.67;30.70;101526.06;5018537;28;20040;-65
2022/07/28 07:39:49;;;;;;;2.75;1.10;;;;;;;30.82;30.93;101524.44;5018729;28;20171;-65
2022/07/28 07:42:14;;;;;;;0.73;0.63;;;;;;;30.99;30.35;101519.00;5018409;28;20075;-65
2022/07/28 07:44:40;;;;;;;7.35;0.90;;;;;;;31.17;30.29;101507.72;5018344;28;20029;-65
2022/07/28 07:47:07;;;;;;;3.55;1.80;;;;;;;31.35;30.02;101512.22;5033860;28;20028;-65
2022/07/28 07:49:33;;;;;;;4.63;1.58;;;;;;;31.50;30.01;101509.72;5018131;28;20483;-65
2022/07/28 07:51:58;;;;;;;3.97;0.80;;;;;;;31.68;29.79;101510.34;5034945;28;20032;-65
2022/07/28 07:54:23;;;;;;;1.92;1.20;;;;;;;31.84;29.47;101500.31;5034754;28;20479;-65
2022/07/28 07:56:49;;;;;;;3.13;0.75;;;;;;;31.99;29.06;101496.94;5035848;28;20053;-65
2022/07/28 07:59:14;;;;;;;5.35;1.20;;;;;;;32.08;29.05;101487.13;5001638;28;20051;-65
2022/07/28 08:04:21;;;;;;;4.82;1.13;;;;;;;32.29;28.48;101491.88;4553118;22;20057;-66
2022/07/28 08:06:47;;;;;;;2.90;1.08;;;;;;;32.38;28.90;101486.72;5017916;28;20088;-66
2022/07/28 08:09:13;;;;;;;1.85;0.77;;;;;;;32.43;28.68;101495.94;5018026;28;20072;-66
2022/07/28 08:11:38;;;;;;;5.20;1.13;;;;;;;32.51;28.36;101495.50;5035577;28;20410;-66
2022/07/28 08:14:04;;;;;;;2.95;0.90;;;;;;;32.59;28.71;101497.84;5035523;28;20494;-66
2022/07/28 08:16:29;;;;;;;2.13;0.60;;;;;;;32.73;27.62;101499.13;5034261;28;20112;-66
2022/07/28 08:18:57;;;;;;;3.42;0.70;;;;;;;32.84;27.38;101512.03;5033987;28;20037;-67
2022/07/28 08:21:26;;;;;;;4.95;1.02;;;;;;;33.01;27.67;101502.78;5034310;28;20033;-66
2022/07/28 08:23:52;;;;;;;2.05;1.00;;;;;;;33.15;27.34;101499.34;5034224;28;20025;-67
2022/07/28 08:26:17;;;;;;;4.85;0.77;;;;;;;33.30;27.19;101499.50;5034163;28;20459;-66
2022/07/28 08:28:43;;;;;;;2.72;0.98;;;;;;;33.48;27.41;101506.59;5034199;28;20048;-67
2022/07/28 08:31:08;;;;;;;3.22;0.77;;;;;;;33.63;27.71;101503.16;5017100;28;20095;-66
2022/07/28 08:33:33;;;;;;;4.72;1.05;;;;;;;33.68;26.50;101501.25;5017192;28;20029;-66
2022/07/28 08:35:59;;;;;;;6.50;0.80;;;;;;;33.76;26.91;101503.53;5035206;28;20403;-66
2022/07/28 08:38:25;;;;;;;1.30;0.68;;;;;;;33.84;26.79;101494.69;5001068;28;20029;-66
2022/07/28 08:40:50;;;;;;;4.63;1.02;;;;;;;33.91;26.30;101494.47;5017140;28;20163;-66
2022/07/28 08:43:31;;;;;;;3.55;1.25;;;;;;;33.94;26.61;101477.25;5033742;28;20082;-67
2022/07/28 08:45:59;;;;;;;4.82;0.70;;;;;;;33.87;26.19;101483.03;5034958;28;20123;-67
2022/07/28 08:48:27;;;;;;;3.85;1.00;;;;;;;33.95;26.59;101476.13;5034826;28;20033;-66
2022/07/28 08:50:53;;;;;;;8.85;0.80;;;;;;;34.15;25.51;101478.22;5017028;28;20021;-66
2022/07/28 08:53:20;;;;;;;6.15;0.93;;;;;;;34.30;26.25;101475.53;5033703;28;20029;-67
2022/07/28 08:55:47;;;;;;;3.47;1.13;;;;;;;34.41;25.34;101468.91;5033580;28;20103;-67
2022/07/28 08:58:13;;;;;;;6.18;1.10;;;;;;;34.54;25.69;101469.25;5033384;28;20022;-67
2022/07/28 09:00:38;;;;;;;4.95;0.82;;;;;;;34.59;26.13;101468.47;5016727;28;20028;-67
2022/07/28 09:03:04;;;;;;;5.63;1.00;;;;;;;34.63;25.48;101469.59;5016452;28;20037;-66
2022/07/28 09:05:29;;;;;;;1.98;0.98;;;;;;;34.59;25.50;101476.84;5033362;28;20048;-66
2022/07/28 09:07:56;;;;;;;5.53;0.95;;;;;;;34.70;25.18;101470.19;5033412;28;20029;-67
2022/07/28 09:10:22;;;;;;;1.73;1.00;;;;;;;34.83;25.88;101466.88;5034502;28;20075;-67
2022/07/28 09:12:48;;;;;;;5.35;0.82;;;;;;;34.90;25.21;101467.44;5034522;28;20075;-67
2022/07/28 09:15:13;;;;;;;1.42;0.60;;;;;;;34.94;25.54;101465.78;5033136;28;20471;-67
2022/07/28 09:17:40;;;;;;;8.95;1.83;;;;;;;34.99;25.44;101463.00;5033133;28;20056;-67
2022/07/28 09:20:07;;;;;;;4.43;1.02;;;;;;;35.04;25.20;101460.22;5013130;28;20018;-66
2022/07/28 09:22:33;;;;;;;2.90;0.70;;;;;;;35.13;25.11;101456.91;4997428;28;20038;-67
2022/07/28 09:25:01;;;;;;;3.25;0.93;;;;;;;35.28;24.75;101454.16;5014341;28;20153;-66
2022/07/28 09:27:26;;;;;;;1.27;0.63;;;;;;;35.36;25.18;101461.97;5013312;28;20034;-67
2022/07/28 09:29:58;;;;;;;2.25;0.77;;;;;;;35.43;24.03;101451.38;5013212;28;20021;-66
2022/07/28 09:32:23;;;;;;;;;;;;;;;35.55;25.02;101449.16;5013485;28;20037;-67
2022/07/28 09:34:49;;;;;;;1.70;0.83;;;;;;;35.53;24.43;101448.59;5013077;28;19914;-67
2022/07/28 09:37:17;;;;;;;4.88;1.42;;;;;;;35.61;25.08;101442.47;5019671;28;20278;-67
2022/07/28 09:39:43;;;;;;;2.60;1.05;;;;;;;35.72;24.26;101443.28;5016440;28;20025;-67
2022/07/28 09:42:08;;;;;;;3.17;0.90;;;;;;;35.91;24.29;101445.19;5032764;28;20486;-67
2022/07/28 09:44:34;;;;;;;5.10;1.10;;;;;;;36.05;24.11;101434.31;5032903;28;20052;-67
2022/07/28 09:46:59;;;;;;;6.47;1.70;;;;;;;36.20;24.19;101432.31;5032623;28;20079;-67
2022/07/28 09:49:41;;;;;;;7.00;0.98;;;;;;;36.34;23.81;101434.50;5033793;28;20096;-67
2022/07/28 09:52:07;;;;;;;;;;;;;;;36.48;24.09;101429.97;5032944;28;20021;-67
2022/07/28 09:54:32;;;;;;;7.45;0.95;;;;;;;36.47;24.20;101423.53;5032525;28;19979;-67
2022/07/28 09:56:58;;;;;;;6.03;0.98;;;;;;;36.61;23.63;101423.78;5015862;28;20029;-67
2022/07/28 09:59:23;;;;;;;1.83;0.73;;;;;;;36.71;23.43;101432.09;5032318;28;20032;-67
2022/07/28 10:01:57;;;;;;;2.45;0.88;;;;;;;36.83;23.50;101420.56;5015992;28;20053;-67
2022/07/28 10:04:35;;;;;;;3.08;1.40;;;;;;;37.16;23.20;101419.81;5015858;28;20128;-67
2022/07/28 10:07:12;;;;;;;3.53;1.48;;;;;;;37.58;22.63;101424.78;5033456;28;20066;-67
2022/07/28 10:09:38;;;;;;;4.47;4.07;;;;;;;38.07;22.96;101419.78;5015495;28;20053;-67
2022/07/28 10:12:22;;;;;;;5.70;1.35;;;;;;;38.72;21.95;101414.47;5015716;28;20427;-67
2022/07/28 10:14:49;;;;;;;4.68;1.00;;;;;;;39.61;21.84;101421.72;5032128;28;20080;-68
2022/07/28 10:17:28;;;;;;;4.38;0.90;;;;;;;40.52;20.31;101405.88;5032175;28;20112;-67
2022/07/28 10:19:57;;;;;;;5.88;1.10;;;;;;;40.48;20.76;101407.66;5032130;28;20028;-67
2022/07/28 10:22:24;;;;;;;4.47;0.90;;;;;;;40.14;20.38;101408.09;5032439;28;20052;-67
2022/07/28 10:24:52;;;;;;;3.95;0.88;;;;;;;39.90;21.22;101408.25;5033146;28;20446;-67
2022/07/28 10:27:20;;;;;;;4.57;1.10;;;;;;;39.72;21.14;101411.16;5015501;28;20056;-67
2022/07/28 10:29:46;;;;;;;6.55;1.40;;;;;;;39.66;21.29;101402.00;5031933;28;20013;-67
2022/07/28 10:32:11;;;;;;;4.93;1.17;;;;;;;39.73;21.28;101398.81;5033161;28;20030;-67
2022/07/28 10:34:38;;;;;;;1.45;0.75;;;;;;;39.81;20.53;101403.72;5032042;28;20033;-67
2022/07/28 10:37:07;;;;;;;1.85;0.70;;;;;;;39.84;20.76;101409.50;5015473;28;20380;-67
2022/07/28 10:39:47;;;;;;;4.13;1.23;;;;;;;39.96;20.39;101406.19;5031674;28;20490;-67
2022/07/28 10:42:14;;;;;;;1.55;0.77;;;;;;;40.09;20.97;101400.59;5015401;28;20025;-67
2022/07/28 10:44:40;;;;;;;4.70;1.10;;;;;;;40.14;20.97;101402.50;5032998;28;20032;-67
2022/07/28 10:47:09;;;;;;;1.63;0.90;;;;;;;40.19;20.22;101401.53;5015467;28;20026;-67
2022/07/28 10:49:35;;;;;;;3.13;0.90;;;;;;;40.24;20.73;101390.19;5015194;28;20079;-67
2022/07/28 10:52:00;;;;;;;3.65;0.80;;;;;;;40.19;20.57;101398.72;5015359;28;20041;-67
2022/07/28 10:54:28;;;;;;;5.20;0.60;;;;;;;40.05;20.37;101409.94;5015384;28;20441;-67
2022/07/28 10:56:55;;;;;;;7.90;0.95;;;;;;;39.89;20.56;101388.94;5031681;28;20112;-67
2022/07/28 10:59:27;;;;;;;2.92;0.90;;;;;;;39.87;20.89;101396.84;5031669;28;20533;-67
2022/07/28 11:01:53;;;;;;;2.80;0.80;;;;;;;39.83;20.25;101393.00;5031479;28;20026;-67
2022/07/28 11:04:40;;;;;;;1.30;0.95;;;;;;;39.75;19.72;101393.72;5031672;28;20050;-67
2022/07/28 11:07:09;;;;;;;3.65;1.23;;;;;;;39.68;20.57;101393.28;5032936;28;20032;-67
2022/07/28 11:09:35;;;;;;;2.55;1.00;;;;;;;39.52;20.10;101385.13;5015134;28;20448;-67
2022/07/28 11:12:01;;;;;;;1.83;1.02;;;;;;;39.65;20.77;101380.69;5031610;28;20026;-67
2022/07/28 11:14:32;;;;;;;3.80;1.00;;;;;;;39.90;20.47;101393.41;5032877;28;20499;-67
2022/07/28 11:17:04;;;;;;;2.97;1.13;;;;;;;40.24;19.54;101388.22;5031405;28;20484;-67
2022/07/28 11:19:44;;;;;;;5.85;1.10;;;;;;;40.49;20.29;101387.69;5031402;28;20026;-67
2022/07/28 11:22:17;;;;;;;2.42;1.05;;;;;;;40.63;19.50;101377.25;5035153;28;20053;-67
2022/07/28 11:25:00;;;;;;;6.28;1.33;;;;;;;40.54;20.07;101384.75;5036506;28;20025;-66
2022/07/28 11:27:50;;;;;;;2.67;1.38;;;;;;;40.05;19.85;101371.47;5035159;28;20032;-66
2022/07/28 11:30:30;;;;;;;3.17;0.77;;;;;;;39.76;19.50;101367.31;5036476;28;20020;-67
2022/07/28 11:32:59;;;;;;;2.40;0.57;;;;;;;39.42;20.48;101379.69;5036251;28;20026;-67
2022/07/28 11:35:28;;;;;;;3.92;0.70;;;;;;;39.23;19.90;101376.13;5002676;28;20076;-67